SDM601 UNAA-UNKL
Flight info
| Callsign | SDM601 |
|---|---|
| Flight time | 0h 34m |
| Altitude | 25000 |
| Route | SELTI1D SELTI B951 ROGMA ROGMA2Z |
| Aircraft | A320/M-SDE3FGHIRWY/LB1 |
Departure
| Time | 2026-05-08 16:45 |
|---|---|
| Airport | Abakan International Airport (UNAA) |
Arrival
| Time | 2026-05-08 17:19 |
|---|---|
| Airport | Krasnoyarsk International Airport (UNKL) |
| Time | Latitude | Longitude | Altitude | Speed | Heading |
|---|---|---|---|---|---|
| 2026-05-08 16:36 | 53.74996 | 91.39812 | 818 ft | 0 kts | 342° |
| 2026-05-08 16:42 | 53.75001 | 91.39808 | 818 ft | 6 kts | 342° |
| 2026-05-08 16:42 | 53.75038 | 91.39718 | 818 ft | 10 kts | 295° |
| 2026-05-08 16:42 | 53.75113 | 91.39649 | 817 ft | 15 kts | 340° |
| 2026-05-08 16:42 | 53.75135 | 91.39638 | 817 ft | 0 kts | 342° |
| 2026-05-08 16:43 | 53.75136 | 91.39637 | 817 ft | 2 kts | 342° |
| 2026-05-08 16:43 | 53.75236 | 91.39583 | 818 ft | 20 kts | 341° |
| 2026-05-08 16:43 | 53.75230 | 91.39471 | 817 ft | 11 kts | 213° |
| 2026-05-08 16:44 | 53.75163 | 91.39419 | 817 ft | 12 kts | 204° |
| 2026-05-08 16:44 | 53.74942 | 91.39247 | 818 ft | 70 kts | 205° |
| 2026-05-08 16:44 | 53.74302 | 91.38751 | 815 ft | 130 kts | 205° |
| 2026-05-08 16:44 | 53.73366 | 91.38010 | 1041 ft | 154 kts | 206° |
| 2026-05-08 16:45 | 53.72369 | 91.37208 | 1623 ft | 163 kts | 206° |
| 2026-05-08 16:45 | 53.71325 | 91.36370 | 2211 ft | 170 kts | 208° |
| 2026-05-08 16:45 | 53.70239 | 91.35499 | 2766 ft | 175 kts | 208° |
| 2026-05-08 16:45 | 53.69172 | 91.34455 | 3177 ft | 185 kts | 231° |
| 2026-05-08 16:46 | 53.68707 | 91.32444 | 3420 ft | 195 kts | 275° |
| 2026-05-08 16:46 | 53.69161 | 91.30233 | 3638 ft | 212 kts | 313° |
| 2026-05-08 16:46 | 53.70452 | 91.28921 | 3970 ft | 232 kts | 352° |
| 2026-05-08 16:46 | 53.72159 | 91.29000 | 4397 ft | 253 kts | 8° |
| 2026-05-08 16:47 | 53.73897 | 91.29541 | 5156 ft | 261 kts | 12° |
| 2026-05-08 16:47 | 53.75687 | 91.30233 | 5972 ft | 266 kts | 13° |
| 2026-05-08 16:47 | 53.77506 | 91.30957 | 6783 ft | 271 kts | 12° |
| 2026-05-08 16:47 | 53.79355 | 91.31671 | 7596 ft | 275 kts | 12° |
| 2026-05-08 16:48 | 53.81243 | 91.32368 | 8382 ft | 280 kts | 11° |
| 2026-05-08 16:48 | 53.83190 | 91.33065 | 9194 ft | 285 kts | 10° |
| 2026-05-08 16:48 | 53.85145 | 91.33756 | 9977 ft | 289 kts | 10° |
| 2026-05-08 16:48 | 53.87062 | 91.34421 | 10397 ft | 305 kts | 10° |
| 2026-05-08 16:49 | 53.89290 | 91.35183 | 10617 ft | 329 kts | 10° |
| 2026-05-08 16:49 | 53.91642 | 91.35989 | 10893 ft | 348 kts | 10° |
| 2026-05-08 16:49 | 53.94039 | 91.36816 | 11512 ft | 354 kts | 9° |
| 2026-05-08 16:49 | 53.96466 | 91.37653 | 12240 ft | 357 kts | 9° |
| 2026-05-08 16:50 | 53.98910 | 91.38499 | 12983 ft | 359 kts | 9° |
| 2026-05-08 16:50 | 54.01367 | 91.39353 | 13715 ft | 362 kts | 9° |
| 2026-05-08 16:50 | 54.03847 | 91.40211 | 14353 ft | 365 kts | 9° |
| 2026-05-08 16:50 | 54.06342 | 91.41078 | 14968 ft | 368 kts | 9° |
| 2026-05-08 16:51 | 54.08863 | 91.41961 | 15584 ft | 371 kts | 9° |
| 2026-05-08 16:51 | 54.11403 | 91.42853 | 16191 ft | 374 kts | 8° |
| 2026-05-08 16:51 | 54.13966 | 91.43752 | 16783 ft | 378 kts | 8° |
| 2026-05-08 16:51 | 54.16550 | 91.44655 | 17377 ft | 381 kts | 8° |
| 2026-05-08 16:52 | 54.19159 | 91.45555 | 17963 ft | 384 kts | 7° |
| 2026-05-08 16:52 | 54.21805 | 91.46322 | 18512 ft | 387 kts | 5° |
| 2026-05-08 16:52 | 54.24480 | 91.46956 | 19052 ft | 389 kts | 4° |
| 2026-05-08 16:52 | 54.27174 | 91.47521 | 19593 ft | 391 kts | 4° |
| 2026-05-08 16:53 | 54.32616 | 91.48637 | 20647 ft | 396 kts | 4° |
| 2026-05-08 16:53 | 54.35362 | 91.49234 | 21148 ft | 399 kts | 4° |
| 2026-05-08 16:53 | 54.38123 | 91.49846 | 21637 ft | 401 kts | 2° |
| 2026-05-08 16:54 | 54.40912 | 91.50091 | 22114 ft | 402 kts | 359° |
| 2026-05-08 16:54 | 54.43719 | 91.50255 | 22586 ft | 405 kts | 359° |
| 2026-05-08 16:54 | 54.46539 | 91.50406 | 23042 ft | 407 kts | 359° |
| 2026-05-08 16:54 | 54.49369 | 91.50547 | 23500 ft | 409 kts | 359° |
| 2026-05-08 16:55 | 54.52219 | 91.50684 | 23903 ft | 410 kts | 359° |
| 2026-05-08 16:55 | 54.55080 | 91.50821 | 24273 ft | 412 kts | 359° |
| 2026-05-08 16:55 | 54.57951 | 91.50966 | 24633 ft | 414 kts | 359° |
| 2026-05-08 16:55 | 54.60877 | 91.51118 | 24903 ft | 416 kts | 359° |
| 2026-05-08 16:56 | 54.63743 | 91.51267 | 24963 ft | 421 kts | 359° |
| 2026-05-08 16:56 | 54.66689 | 91.51417 | 24966 ft | 424 kts | 359° |
| 2026-05-08 16:56 | 54.69639 | 91.51568 | 24967 ft | 425 kts | 359° |
| 2026-05-08 16:56 | 54.72600 | 91.51720 | 24966 ft | 425 kts | 359° |
| 2026-05-08 16:57 | 54.75561 | 91.51875 | 24971 ft | 425 kts | 359° |
| 2026-05-08 16:57 | 54.78515 | 91.52028 | 24963 ft | 425 kts | 359° |
| 2026-05-08 16:57 | 54.81467 | 91.52180 | 24964 ft | 424 kts | 359° |
| 2026-05-08 16:57 | 54.84420 | 91.52333 | 24964 ft | 425 kts | 359° |
| 2026-05-08 16:58 | 54.87375 | 91.52486 | 24962 ft | 424 kts | 359° |
| 2026-05-08 16:58 | 54.90365 | 91.52640 | 24962 ft | 424 kts | 359° |
| 2026-05-08 16:58 | 54.93320 | 91.52790 | 24961 ft | 424 kts | 359° |
| 2026-05-08 16:58 | 54.96269 | 91.52859 | 24960 ft | 423 kts | 355° |
| 2026-05-08 16:59 | 54.99182 | 91.52266 | 24962 ft | 421 kts | 348° |
| 2026-05-08 16:59 | 55.01093 | 91.51704 | 24968 ft | 421 kts | 348° |
| 2026-05-08 16:59 | 55.03982 | 91.50857 | 24963 ft | 421 kts | 348° |
| 2026-05-08 16:59 | 55.07854 | 91.49725 | 24958 ft | 422 kts | 348° |
| 2026-05-08 17:00 | 55.09770 | 91.49165 | 24959 ft | 422 kts | 348° |
| 2026-05-08 17:00 | 55.12663 | 91.48319 | 24956 ft | 422 kts | 348° |
| 2026-05-08 17:00 | 55.15557 | 91.47471 | 24952 ft | 422 kts | 348° |
| 2026-05-08 17:00 | 55.18438 | 91.46626 | 24956 ft | 422 kts | 348° |
| 2026-05-08 17:01 | 55.21337 | 91.45774 | 24953 ft | 422 kts | 348° |
| 2026-05-08 17:01 | 55.24232 | 91.44917 | 24953 ft | 422 kts | 348° |
| 2026-05-08 17:01 | 55.27126 | 91.44059 | 24966 ft | 422 kts | 347° |
| 2026-05-08 17:01 | 55.30021 | 91.43203 | 24962 ft | 422 kts | 347° |
| 2026-05-08 17:02 | 55.32919 | 91.42344 | 24958 ft | 422 kts | 347° |
| 2026-05-08 17:02 | 55.35853 | 91.41471 | 24960 ft | 422 kts | 347° |
| 2026-05-08 17:02 | 55.38749 | 91.40613 | 24952 ft | 422 kts | 347° |
| 2026-05-08 17:02 | 55.41607 | 91.39760 | 24961 ft | 422 kts | 347° |
| 2026-05-08 17:03 | 55.44500 | 91.38894 | 24951 ft | 422 kts | 347° |
| 2026-05-08 17:03 | 55.47386 | 91.38038 | 24949 ft | 418 kts | 348° |
| 2026-05-08 17:03 | 55.50315 | 91.37782 | 24950 ft | 427 kts | 2° |
| 2026-05-08 17:03 | 55.53225 | 91.39018 | 24962 ft | 438 kts | 18° |
| 2026-05-08 17:04 | 55.55859 | 91.41817 | 24958 ft | 449 kts | 36° |
| 2026-05-08 17:04 | 55.57919 | 91.46012 | 24942 ft | 460 kts | 55° |
| 2026-05-08 17:04 | 55.59349 | 91.51110 | 24955 ft | 464 kts | 62° |
| 2026-05-08 17:04 | 55.60671 | 91.56264 | 24844 ft | 456 kts | 62° |
| 2026-05-08 17:05 | 55.61970 | 91.61388 | 23807 ft | 460 kts | 62° |
| 2026-05-08 17:05 | 55.63292 | 91.66602 | 22747 ft | 465 kts | 62° |
| 2026-05-08 17:05 | 55.64600 | 91.71774 | 22205 ft | 456 kts | 63° |
| 2026-05-08 17:05 | 55.65888 | 91.76865 | 21556 ft | 450 kts | 63° |
| 2026-05-08 17:06 | 55.67164 | 91.81886 | 20972 ft | 444 kts | 63° |
| 2026-05-08 17:06 | 55.68423 | 91.86847 | 20399 ft | 439 kts | 63° |
| 2026-05-08 17:06 | 55.69666 | 91.91750 | 19835 ft | 433 kts | 63° |
| 2026-05-08 17:06 | 55.70893 | 91.96597 | 19314 ft | 428 kts | 63° |
| 2026-05-08 17:07 | 55.72099 | 92.01392 | 18797 ft | 424 kts | 63° |
| 2026-05-08 17:07 | 55.73286 | 92.06137 | 18310 ft | 418 kts | 63° |
| 2026-05-08 17:07 | 55.74523 | 92.10775 | 17778 ft | 412 kts | 57° |
| 2026-05-08 17:07 | 55.76112 | 92.14931 | 17336 ft | 402 kts | 47° |
| 2026-05-08 17:08 | 55.78029 | 92.18471 | 16872 ft | 394 kts | 38° |
| 2026-05-08 17:08 | 55.80204 | 92.21359 | 16385 ft | 387 kts | 30° |
| 2026-05-08 17:08 | 55.82439 | 92.23987 | 15918 ft | 383 kts | 30° |
| 2026-05-08 17:08 | 55.84652 | 92.26608 | 15420 ft | 381 kts | 30° |
| 2026-05-08 17:09 | 55.86847 | 92.29219 | 14928 ft | 379 kts | 31° |
| 2026-05-08 17:09 | 55.89064 | 92.31866 | 14409 ft | 378 kts | 31° |
| 2026-05-08 17:09 | 55.91212 | 92.34434 | 13905 ft | 377 kts | 31° |
| 2026-05-08 17:09 | 55.93415 | 92.37069 | 13324 ft | 376 kts | 31° |
| 2026-05-08 17:10 | 55.95576 | 92.39655 | 12791 ft | 372 kts | 31° |
| 2026-05-08 17:10 | 55.97718 | 92.42221 | 12243 ft | 370 kts | 31° |
| 2026-05-08 17:10 | 55.99845 | 92.44773 | 11700 ft | 367 kts | 31° |
| 2026-05-08 17:10 | 56.01960 | 92.47309 | 11154 ft | 365 kts | 31° |
| 2026-05-08 17:11 | 56.04058 | 92.49828 | 10744 ft | 359 kts | 30° |
| 2026-05-08 17:11 | 56.06180 | 92.51929 | 10619 ft | 340 kts | 19° |
| 2026-05-08 17:11 | 56.08313 | 92.53544 | 10498 ft | 326 kts | 19° |
| 2026-05-08 17:11 | 56.10361 | 92.55110 | 10368 ft | 314 kts | 19° |
| 2026-05-08 17:12 | 56.12328 | 92.56623 | 10254 ft | 302 kts | 18° |
| 2026-05-08 17:12 | 56.14235 | 92.58094 | 10041 ft | 296 kts | 18° |
| 2026-05-08 17:12 | 56.16105 | 92.59533 | 9943 ft | 291 kts | 18° |
| 2026-05-08 17:12 | 56.17967 | 92.60959 | 9779 ft | 292 kts | 18° |
| 2026-05-08 17:13 | 56.19852 | 92.62402 | 9325 ft | 293 kts | 18° |
| 2026-05-08 17:13 | 56.21725 | 92.63839 | 8846 ft | 294 kts | 18° |
| 2026-05-08 17:13 | 56.23577 | 92.65479 | 8526 ft | 294 kts | 32° |
| 2026-05-08 17:13 | 56.24896 | 92.68325 | 8008 ft | 306 kts | 65° |
| 2026-05-08 17:14 | 56.25188 | 92.72062 | 7718 ft | 305 kts | 98° |
| 2026-05-08 17:14 | 56.24542 | 92.75674 | 7279 ft | 304 kts | 113° |
| 2026-05-08 17:14 | 56.23672 | 92.79142 | 6863 ft | 303 kts | 122° |
| 2026-05-08 17:14 | 56.22237 | 92.81786 | 6489 ft | 293 kts | 152° |
| 2026-05-08 17:15 | 56.20373 | 92.82956 | 5835 ft | 280 kts | 179° |
| 2026-05-08 17:15 | 56.18468 | 92.82682 | 5126 ft | 272 kts | 197° |
| 2026-05-08 17:15 | 56.16716 | 92.81514 | 4448 ft | 268 kts | 212° |
| 2026-05-08 17:15 | 56.15200 | 92.79568 | 3845 ft | 271 kts | 226° |
| 2026-05-08 17:16 | 56.14037 | 92.76986 | 3564 ft | 262 kts | 240° |
| 2026-05-08 17:16 | 56.13300 | 92.74096 | 3359 ft | 250 kts | 254° |
| 2026-05-08 17:16 | 56.12975 | 92.71093 | 3124 ft | 242 kts | 267° |
| 2026-05-08 17:16 | 56.13036 | 92.68187 | 2855 ft | 222 kts | 280° |
| 2026-05-08 17:17 | 56.13400 | 92.65634 | 2611 ft | 203 kts | 291° |
| 2026-05-08 17:17 | 56.13926 | 92.63384 | 2351 ft | 189 kts | 295° |
| 2026-05-08 17:17 | 56.14430 | 92.61288 | 2089 ft | 177 kts | 294° |
| 2026-05-08 17:17 | 56.14893 | 92.59360 | 1895 ft | 158 kts | 295° |
| 2026-05-08 17:18 | 56.15320 | 92.57599 | 1623 ft | 148 kts | 295° |
| 2026-05-08 17:18 | 56.15714 | 92.55944 | 1454 ft | 143 kts | 294° |
| 2026-05-08 17:18 | 56.16109 | 92.54299 | 1273 ft | 144 kts | 294° |
| 2026-05-08 17:18 | 56.16505 | 92.52637 | 1076 ft | 145 kts | 292° |
| 2026-05-08 17:19 | 56.16891 | 92.51005 | 961 ft | 134 kts | 293° |
| 2026-05-08 17:19 | 56.17207 | 92.49685 | 954 ft | 92 kts | 293° |
| 2026-05-08 17:19 | 56.17379 | 92.48973 | 953 ft | 38 kts | 294° |
| 2026-05-08 17:19 | 56.17486 | 92.48712 | 954 ft | 17 kts | 318° |
| 2026-05-08 17:20 | 56.17584 | 92.48582 | 955 ft | 17 kts | 324° |
| 2026-05-08 17:20 | 56.17621 | 92.48535 | 955 ft | 0 kts | 324° |
| 2026-05-08 17:20 | 56.17624 | 92.48530 | 956 ft | 4 kts | 324° |
| 2026-05-08 17:20 | 56.17714 | 92.48421 | 956 ft | 20 kts | 331° |
| 2026-05-08 17:21 | 56.17844 | 92.48465 | 953 ft | 20 kts | 23° |
| 2026-05-08 17:21 | 56.17939 | 92.48536 | 955 ft | 0 kts | 23° |